CheckWX is a tool to help pilots better visualize weather data.  It is not intended as a substitute for an official pre-flight weather briefing.

07:56:59 UTC

KRBL TAF
Red Bluff Municipal Airport
Red Bluff, California, USA
KRBL 210527Z 2106/2206 33005KT P6SM SKC FM211900 35012KT P6SM SKC

Oct-21@
06:00 UTC

Oct-21 @ 06:00 UTC

Oct-21@
19:00 UTC

Oct-21 @ 19:00 UTC

KRBL 210527Z 2106/2206 33005KT P6SM SKC
Wind
  • 330° at 5 KTS
Cloud Levels
  • Clear skies

Oct-21@
19:00 UTC

Oct-21 @ 19:00 UTC

Oct-22@
06:00 UTC

Oct-22 @ 06:00 UTC

FM211900 35012KT P6SM SKC

From

From Standard forecast or significant change

Wind
  • 350° at 12 KTS
Cloud Levels
  • Clear skies